Sevierville, TN

12:56 AM EST on November 23, 2014 (GMT -0500)
Ripplin' Waters RV Park | Change Station
CLOSE
Current Station
Personal Weather Station
Location: Sevierville, TN
Elevation: 883 ft
Nearby Weather Stations
Active Advisory: High Wind Watch

Elev 883 ft 35.92 °N, 83.58 °W | Updated 1 minute ago

Mostly Cloudy
Mostly Cloudy
35.8 °F
Feels Like 36 °F
N
0.0
Wind Variable Wind from East

Today
High -- | Low -- °F
--% Chance of Precip.
Yesterday
High -- | Low -- °F
Precip. -- in
7:18 AM 5:22 PM
New Moon, 1% visible
Pressure 30.18 in
Visibility 10.0 miles
Clouds Overcast 25000 ft
Windchill 36 °F
Dew Point 32 °F
Humidity 85%
Rainfall 0.00 in
Snow Depth Not available.
UV 0 out of 12
Pollen .10 out of 12
Air Quality Not available.
Flu Activity Not available.
METAR KTYS 230453Z 02003KT 10SM OVC250 05/00 A3017 RMK AO2 SLP218 T00500000 401501033

More Conditions Fewer Conditions

Pressure 30.18 in
Visibility 10.0 miles
Clouds Overcast 25000 ft
Windchill 36 °F
Dew Point 32 °F
Humidity 85%
Rainfall 0.00 in
Snow Depth Not available.
UV 0 out of 12
Pollen .10 out of 12
Air Quality Not available.
Flu Activity Not available.
METAR KTYS 230453Z 02003KT 10SM OVC250 05/00 A3017 RMK AO2 SLP218 T00500000 401501033

More Conditions Fewer Conditions

10-Day Weather Forecast

Almanac

Astronomy

Nov. 23, 2014 Rise Set
Actual Time
Civil Twilight
Nautical Twilight
Astronomical Twilight
Moon
Length of Visible Light
Length of Day
Tomorrow will be .
, % of the Moon is Illuminated

Today's Extremes

State Highs State Lows

Community

WunderPhotos

Upload Photos

1,773,017 photos uploaded!

WunderBlogs® & News

Nearby

Air Quality

  Air Quality AQ Index Pollutant
Not available.

Snow Depth

Station Depth Elevation

Earthquake Activity

City Distance Mag. Time & Date
Minimum magnitude displayed is 2.5.

Coastal Water Temperatures

Place Temperature

Nearby Weather Stations